ADDS METAR Data INFO
IDs: Format: Raw Decoded Include TAF

Data at: 0159 UTC 17 Oct 2017

KRNO 170155Z 00000KT 10SM BKN230 18/M06 A3025 RMK AO2 SLP227 HZ ALQDS T01831061 $
KRNO 170055Z 12004KT 10SM BKN200 21/M07 A3025 RMK AO2 SLP219 HZ ALQDS T02111067 $
KRNO 162355Z 00000KT 10SM BKN200 23/M07 A3025 RMK AO2 SLP220 HZ ALQDS T02331067 56017 $
KRNO 162255Z 05003KT 10SM BKN200 23/M07 A3027 RMK AO2 SLP224 HZ ALQDS T02331072
KRNO 162155Z 00000KT 10SM FEW180 BKN200 BKN250 22/M09 A3028 RMK AO2 SLP231 FU HZ ALQDS T02171089
KRNO 162055Z 00000KT 10SM FEW180 BKN200 BKN250 20/M09 A3031 RMK AO2 SLP240 FU HZ ALQDS T02001089 58027
KRNO 161955Z 00000KT 10SM FEW180 SCT200 BKN250 18/M07 A3034 RMK AO2 SLP252 FU HZ ALQDS T01781072
KRNO 161855Z 00000KT 10SM SCT200 BKN250 15/M07 A3038 RMK AO2 SLP266 FU HZ ALQDS T01501067
KRNO 161755Z 00000KT 10SM FEW200 BKN250 11/M05 A3040 RMK AO2 SLP279 FU HZ ALQDS 6//// T01061044 10106 20000 50001 PNO $
KRNO 161655Z 00000KT 10SM FEW200 BKN250 08/M04 A3041 RMK AO2 SLP286 HZ ALQDS T00781044
KRNO 161555Z 00000KT 10SM FEW200 BKN250 04/M04 A3041 RMK AO2 SLP288 FU ALF ALQDS T00391039
KRNO 161455Z 00000KT 10SM FEW180 01/M04 A3039 RMK AO2 SLP284 FU ALF ALQDS T00111044 53010
KRNO 161355Z 16003KT 10SM FEW180 01/M04 A3038 RMK AO2 SLP276 FU ALQDS T00061044 $
KRNO 161255Z 00000KT 10SM CLR 02/M04 A3037 RMK AO2 SLP265 T00171039 $
KRNO 161155Z 17003KT 10SM CLR 01/M04 A3036 RMK AO2 SLP262 T00111044 10083 20011 56005 $
KRNO 161055Z 00000KT 10SM CLR 02/M04 A3036 RMK AO2 SLP260 T00221044 $
KRNO 160955Z 00000KT 10SM CLR 03/M03 A3037 RMK AO2 SLP264 T00281033 $
KRNO 160855Z 00000KT 10SM CLR 03/M03 A3038 RMK AO2 SLP269 T00331033 53002 $
KRNO 160755Z 29004KT 10SM CLR 06/M04 A3037 RMK AO2 SLP267 T00611044 402061011 $
KRNO 160655Z VRB03KT 10SM FEW200 07/M03 A3037 RMK AO2 SLP267 T00721033 $
KRNO 160555Z 29003KT 10SM FEW200 08/M03 A3037 RMK AO2 SLP270 T00781028 10200 20072 51010 $
KRNO 160455Z 28003KT 10SM FEW200 10/M03 A3037 RMK AO2 SLP272 T01001033 $
KRNO 160355Z 00000KT 10SM SCT200 12/M03 A3035 RMK AO2 SLP267 T01171028 $
KRNO 160255Z 22003KT 10SM SCT210 13/M02 A3034 RMK AO2 SLP263 T01331022 53008 $
KRNO 160155Z 02003KT 10SM FEW210 SCT250 16/M06 A3031 RMK AO2 SLP254 T01611056
KRNO 160055Z 00000KT 10SM FEW210 BKN250 19/M07 A3031 RMK AO2 SLP246 T01941067
KRNO 152355Z 00000KT 10SM SCT210 BKN250 20/M07 A3031 RMK AO2 SLP244 T02001067 10206 20094 56012
KRNO 152255Z 00000KT 10SM FEW180 BKN250 20/M07 A3032 RMK AO2 SLP247 T02001072
KRNO 152155Z 28003KT 10SM FEW180 BKN200 BKN250 19/M06 A3033 RMK AO2 SLP249 T01891061
KRNO 152055Z 14003KT 10SM FEW180 BKN200 BKN250 16/M06 A3035 RMK AO2 SLP260 T01611056 58024
KRNO 151955Z VRB04KT 10SM BKN200 BKN250 15/M05 A3039 RMK AO2 SLP274 T01501050
KRNO 151855Z 00000KT 10SM BKN200 BKN250 13/M06 A3041 RMK AO2 SLP286 T01281056
KRNO 151755Z 00000KT 10SM BKN200 BKN250 09/M06 A3043 RMK AO2 SLP294 T00941056 10094 21011 58003
KRNO 151655Z 00000KT 10SM BKN210 BKN250 06/M05 A3044 RMK AO2 SLP303 T00611050
KRNO 151555Z 00000KT 10SM SCT210 BKN250 03/M04 A3045 RMK AO2 SLP306 T00331044
KRNO 151455Z 00000KT 10SM SCT210 BKN250 01/M05 A3044 RMK AO2 SLP306 T00061050 51008